Flight Track Log - Related Links

Times and Time Zones

All times are in EDT time to prevent confusion due to time zone crossing. See the PWA444 flight status page for this flight to view local times or setup timezone preferences in your user account.

Time Position Orientation Groundspeed Altitude Reporting Facility
EDT Latitude Longitude Course Direction KTS MPH feet Rate Location/Type
Mon 07:06:51 AM 40.8781 -81.5581 268° West 254 292 6,000  Level Cleveland Center
Mon 07:07:51 AM 40.8794 -81.6514 271° West 272 313 8,000 1,650 Climbing Cleveland Center
Mon 07:08:51 AM 40.8761 -81.7583 268° West 285 328 9,300 2,000 Climbing Cleveland Center
Mon 07:09:51 AM 40.8936 -81.8878 280° West 309 356 12,000 3,250 Climbing Cleveland Center
Mon 07:10:51 AM 40.9422 -82.0097 298° West 356 410 15,800 3,300 Climbing Cleveland Center
Mon 07:11:00 AM 40.9855 -81.9458 333° Northwest  Level FlightAware
Mon 07:12:51 AM 41.0386 -82.2625 297° West 379 436 21,900  Level Cleveland Center
Mon 07:13:51 AM 41.0867 -82.3903 297° West 390 449 23,500 2,100 Climbing Cleveland Center
Mon 07:14:51 AM 41.1367 -82.5214 297° West 390 449 26,100 2,600 Climbing Cleveland Center
Mon 07:15:51 AM 41.1864 -82.6581 296° West 396 456 28,700 2,400 Climbing Cleveland Center
Mon 07:16:51 AM 41.2556 -82.7514 315° West 396 456 30,900 2,550 Climbing Cleveland Center
Mon 07:17:51 AM 41.3503 -82.8236 330° Northwest 388 447 33,800 1,550 Climbing Cleveland Center
Mon 07:18:51 AM 41.4189 -82.9258 312° West 377 434 34,000 100 Climbing Cleveland Center
Mon 07:19:51 AM 41.4794 -83.0306 308° West 366 421 34,000  Level Cleveland Center
Mon 07:20:51 AM 41.5417 -83.1356 308° West 359 413 34,000  Level Cleveland Center
Mon 07:21:51 AM 41.5978 -83.2378 306° West 354 407 34,000  Level Cleveland Center
Mon 07:22:51 AM 41.6619 -83.3431 309° West 354 407 34,000  Level Cleveland Center
Mon 07:23:51 AM 41.7219 -83.4486 307° West 354 407 34,000  Level Cleveland Center
Mon 07:24:51 AM 41.7839 -83.5544 308° West 354 407 34,000  Level Cleveland Center
Mon 07:25:51 AM 41.8436 -83.6606 307° West 354 407 34,000 -2,000 Level Cleveland Center
Mon 07:26:51 AM 41.9033 -83.7639 308° West 349 402 30,000 -2,000 Descending Cleveland Center
Mon 07:27:51 AM 41.9728 -83.8844 308° West 375 432 30,000  Level Cleveland Center
Mon 07:28:51 AM 42.0442 -84.0086 308° West 404 465 30,000  Level Cleveland Center
Mon 07:29:51 AM 42.1175 -84.1356 308° West 429 494 30,000  Level Cleveland Center
Mon 07:30:51 AM 42.1908 -84.2631 308° West 435 501 30,000  Level Cleveland Center
Mon 07:31:51 AM 42.2636 -84.3908 308° West 430 495 30,000  Level Cleveland Center
Mon 07:32:51 AM 42.3344 -84.5186 307° West 430 495 30,000 -100 Level Cleveland Center
Mon 07:33:51 AM 42.4069 -84.6500 307° West 430 495 29,800 -772 Descending Cleveland Center
Mon 07:34:32 AM 42.4556 -84.7300 309° West 408 470 28,700 -1,059 Descending Chicago Center
Mon 07:35:33 AM 42.5186 -84.8419 307° West 381 438 28,000 -341 Descending Chicago Center
Mon 07:36:35 AM 42.5825 -84.9575 307° West 385 443 28,000 -683 Level Chicago Center
Mon 07:37:36 AM 42.6456 -85.0747 306° West 386 444 26,600 -976 Descending Chicago Center
Mon 07:38:38 AM 42.7075 -85.1858 307° West 375 432 26,000 -290 Descending Chicago Center
Mon 07:39:40 AM 42.7836 -85.3242 307° West 380 437 26,000  Level Chicago Center
Mon 07:40:41 AM 42.8467 -85.4403 307° West 383 441 26,000  Level Chicago Center
Mon 07:41:43 AM 42.9150 -85.5664 307° West 413 475 26,000  Level Chicago Center
Mon 07:42:44 AM 42.9817 -85.6897 306° West 408 470 26,000  Level Chicago Center
Mon 07:43:46 AM 43.0461 -85.8100 306° West 399 459 26,000 -146 Level Chicago Center
Mon 07:44:47 AM 43.1108 -85.9292 307° West 402 463 25,700 -878 Descending Chicago Center
Mon 07:45:49 AM 43.1608 -86.0858 294° West 387 445 24,200 -1,512 Descending Chicago Center
Mon 07:46:50 AM 43.1672 -86.2300 274° West 390 449 22,600 -1,525 Descending Chicago Center
Mon 07:47:51 AM 43.1650 -86.3692 269° West 368 423 21,100 -1,463 Descending Chicago Center
Mon 07:48:53 AM 43.1622 -86.5039 268° West 356 410 19,600 -1,415 Descending Chicago Center
Mon 07:49:54 AM 43.1600 -86.6369 269° West 351 404 18,200 -1,610 Descending Chicago Center
Mon 07:50:56 AM 43.1561 -86.7917 268° West 340 391 16,300 -1,512 Descending Chicago Center
Mon 07:51:57 AM 43.1544 -86.9119 269° West 316 364 15,100 -1,512 Descending Chicago Center
Mon 07:52:59 AM 43.1517 -87.0256 268° West 304 350 13,200 -2,081 Descending Chicago Center
Mon 07:54:01 AM 43.1492 -87.1383 268° West 297 342 10,800 -1,659 Descending Chicago Center
Mon 07:55:02 AM 43.1456 -87.2392 267° West 263 303 9,800 -390 Descending Chicago Center
Mon 07:56:04 AM 43.1439 -87.3378 269° West 259 298 10,000 98 Climbing Chicago Center
Mon 07:57:05 AM 43.1408 -87.4536 268° West 278 320 10,000  Level Chicago Center
Mon 07:58:07 AM 43.1378 -87.5603 268° West 280 322 10,000 -537 Level Chicago Center
Mon 07:59:08 AM 43.1350 -87.6536 268° West 254 292 8,900 -1,268 Descending Chicago Center
Mon 08:00:10 AM 43.1328 -87.7497 268° West 250 288 7,400 -1,403 Descending Chicago Center
Mon 08:01:12 AM 43.1297 -87.8597 268° West 248 285 6,000 -1,171 Descending Chicago Center
Mon 08:02:13 AM 43.1261 -87.9578 267° West 255 293 5,000 -976 Descending Chicago Center
Mon 08:03:15 AM 43.1231 -88.0547 268° West 255 293 4,000 -484 Descending Chicago Center
Mon 08:04:17 AM 43.1206 -88.1536 268° West 256 295 4,000  Level Chicago Center
Mon 08:05:18 AM 43.1172 -88.2458 267° West 251 289 4,000 -49 Level Chicago Center
Mon 08:06:20 AM 43.1211 -88.3272 274° West 231 266 3,900 -532 Descending Chicago Center
Mon 08:07:22 AM 43.1361 -88.4058 285° West 218 251 2,900 -585 Descending Chicago Center
Mon 08:08:23 AM 43.1119 -88.4483 232° Southwest 185 213 2,700 -98 Descending Chicago Center
Mon 08:09:25 AM 43.0706 -88.4125 148° Southeast 170 196 2,700 -145 Level Chicago Center
Mon 08:10:27 AM 43.0569 -88.3503 107° East 169 194 2,400 -581 Descending Chicago Center
Mon 08:11:29 AM 43.0497 -88.2889 99° East 167 192 1,500 -585 Descending Chicago Center
Mon 08:12:30 AM 43.0408 -88.2233 100° East 165 190 1,200 -295 Descending Chicago Center

Login

Don't have an account? Register now (free) for customized features, flight alerts, and more!